Time;durP1;ratioP1;P1;durP2;ratioP2;P2;SDS_P1;SDS_P2;PMS_P1;PMS_P2;Temp;Humidity;BMP_temperature;BMP_pressure;BME280_temperature;BME280_humidity;BME280_pressure;Samples;Min_cycle;Max_cycle;Signal;HPM_P1;HPM_P2
2021/09/07 00:01:14;;;;;;;4.33;1.03;;;;;;;;;;5095411;28;20078;-61
2021/09/07 00:03:41;;;;;;;8.60;1.30;;;;;;;;;;5096388;28;20048;-61
2021/09/07 00:06:08;;;;;;;7.07;2.03;;;;;;;;;;5111074;28;20029;-61
2021/09/07 00:08:34;;;;;;;3.40;0.87;;;;;;;;;;5110508;28;20055;-62
2021/09/07 00:11:01;;;;;;;3.03;1.40;;;;;;;;;;5110395;28;20031;-61
2021/09/07 00:13:28;;;;;;;5.53;0.97;;;;;;;;;;5110423;28;20080;-62
2021/09/07 00:15:55;;;;;;;3.87;1.20;;;;;;;;;;5113802;28;20083;-62
2021/09/07 00:18:21;;;;;;;3.57;1.10;;;;;;;;;;5115129;28;20031;-61
2021/09/07 00:20:48;;;;;;;1.73;0.80;;;;;;;;;;5115185;28;20024;-62
2021/09/07 00:23:15;;;;;;;1.97;0.80;;;;;;;;;;5114904;28;20104;-62
2021/09/07 00:25:42;;;;;;;2.40;1.33;;;;;;;;;;5115300;28;20016;-62
2021/09/07 00:28:08;;;;;;;5.47;1.00;;;;;;;;;;5111935;28;20087;-62
2021/09/07 00:30:35;;;;;;;2.33;1.20;;;;;;;;;;5110222;28;20027;-62
2021/09/07 00:33:03;;;;;;;3.67;0.83;;;;;;;;;;5110052;28;20370;-62
2021/09/07 00:35:30;;;;;;;4.20;1.20;;;;;;;;;;5092553;28;20031;-62
2021/09/07 00:37:57;;;;;;;3.27;0.90;;;;;;;;;;5091636;28;20035;-62
2021/09/07 00:40:24;;;;;;;2.90;0.97;;;;;;;;;;5094574;28;20431;-62
2021/09/07 00:42:51;;;;;;;2.10;0.90;;;;;;;;;;5094401;28;20028;-62
2021/09/07 00:45:18;;;;;;;3.23;0.90;;;;;;;;;;5094643;28;20024;-62
2021/09/07 00:47:44;;;;;;;3.47;0.90;;;;;;;;;;5094399;28;20077;-62
2021/09/07 00:50:12;;;;;;;1.83;0.93;;;;;;;;;;5092154;28;20028;-62
2021/09/07 00:52:40;;;;;;;4.63;0.93;;;;;;;;;;5089162;28;20034;-62
2021/09/07 00:55:07;;;;;;;4.37;1.00;;;;;;;;;;5088970;28;20040;-62
2021/09/07 00:57:35;;;;;;;1.93;0.70;;;;;;;;;;5089143;28;20487;-62
2021/09/07 01:00:04;;;;;;;4.50;0.87;;;;;;;;;;5089389;28;20480;-62
2021/09/07 01:02:31;;;;;;;5.97;1.00;;;;;;;;;;5094209;28;20047;-62
2021/09/07 01:04:57;;;;;;;2.73;1.00;;;;;;;;;;5094309;28;20027;-61
2021/09/07 01:07:24;;;;;;;3.07;0.80;;;;;;;;;;5094225;28;20033;-61
2021/09/07 01:09:51;;;;;;;3.73;0.90;;;;;;;;;;5093956;28;20368;-62
2021/09/07 01:12:18;;;;;;;2.30;0.70;;;;;;;;;;5092353;28;20020;-62
2021/09/07 01:14:45;;;;;;;2.07;0.80;;;;;;;;;;5088852;28;20463;-61
2021/09/07 01:17:15;;;;;;;1.93;0.90;;;;;;;;;;5088783;28;20032;-62
2021/09/07 01:19:43;;;;;;;3.20;0.67;;;;;;;;;;5088863;28;20040;-61
2021/09/07 01:22:10;;;;;;;5.33;1.23;;;;;;;;;;5088966;28;20033;-62
2021/09/07 01:24:37;;;;;;;3.10;0.87;;;;;;;;;;5093689;28;20028;-61
2021/09/07 01:27:06;;;;;;;5.53;1.50;;;;;;;;;;5093684;28;20016;-61
2021/09/07 01:29:37;;;;;;;3.90;1.17;;;;;;;;;;5093415;28;20419;-61
2021/09/07 01:32:04;;;;;;;2.57;1.00;;;;;;;;;;5093678;28;20366;-61
2021/09/07 01:34:31;;;;;;;2.67;0.80;;;;;;;;;;5095479;28;20439;-61
2021/09/07 01:36:58;;;;;;;2.83;0.80;;;;;;;;;;5088266;28;20021;-61
2021/09/07 01:39:26;;;;;;;17.53;1.90;;;;;;;;;;5095445;28;20191;-61
2021/09/07 01:41:53;;;;;;;2.27;0.70;;;;;;;;;;5108520;28;20028;-62
2021/09/07 01:44:20;;;;;;;2.67;0.77;;;;;;;;;;5108337;28;20051;-62
2021/09/07 01:46:47;;;;;;;4.07;0.93;;;;;;;;;;5113432;28;20026;-61
2021/09/07 01:49:15;;;;;;;1.47;0.60;;;;;;;;;;5113773;28;20411;-61
2021/09/07 01:51:42;;;;;;;1.50;0.57;;;;;;;;;;5113539;28;20023;-62
2021/09/07 01:54:10;;;;;;;4.00;0.80;;;;;;;;;;5095537;28;20024;-61
2021/09/07 01:56:38;;;;;;;3.47;1.00;;;;;;;;;;5093272;28;20082;-61
2021/09/07 01:59:05;;;;;;;5.17;1.03;;;;;;;;;;5087989;28;20024;-61
2021/09/07 02:01:32;;;;;;;2.60;0.97;;;;;;;;;;5087784;28;20450;-61
2021/09/07 02:03:58;;;;;;;3.33;0.80;;;;;;;;;;5087877;28;20027;-61
2021/09/07 02:06:25;;;;;;;4.17;1.13;;;;;;;;;;5087989;28;20077;-61
2021/09/07 02:08:52;;;;;;;4.10;1.87;;;;;;;;;;5095285;28;20020;-61
2021/09/07 02:11:19;;;;;;;2.87;0.93;;;;;;;;;;5112047;28;20055;-61
2021/09/07 02:13:46;;;;;;;2.47;0.90;;;;;;;;;;5112796;28;20024;-61
2021/09/07 02:16:13;;;;;;;2.80;1.00;;;;;;;;;;5113190;28;20470;-61
2021/09/07 02:18:39;;;;;;;2.87;0.77;;;;;;;;;;5113039;28;20406;-61
2021/09/07 02:21:06;;;;;;;1.33;0.60;;;;;;;;;;5109306;28;20023;-61
2021/09/07 02:23:33;;;;;;;3.10;0.70;;;;;;;;;;5108011;28;20031;-62
2021/09/07 02:26:00;;;;;;;8.60;1.20;;;;;;;;;;5107891;28;20030;-61
2021/09/07 02:28:26;;;;;;;2.67;0.80;;;;;;;;;;5107815;28;20032;-61
2021/09/07 02:30:53;;;;;;;1.33;0.73;;;;;;;;;;5110658;28;20371;-61
2021/09/07 02:33:20;;;;;;;2.40;1.00;;;;;;;;;;5108378;28;20173;-61
2021/09/07 02:35:47;;;;;;;1.23;0.70;;;;;;;;;;5092571;28;20012;-62
2021/09/07 02:38:13;;;;;;;1.80;1.00;;;;;;;;;;5092195;28;20032;-61
2021/09/07 02:40:40;;;;;;;2.97;1.50;;;;;;;;;;5092547;28;20024;-61
2021/09/07 02:43:07;;;;;;;3.33;1.40;;;;;;;;;;5089687;28;20157;-61
2021/09/07 02:45:34;;;;;;;6.17;1.77;;;;;;;;;;5087496;28;20048;-61
2021/09/07 02:48:00;;;;;;;4.03;1.30;;;;;;;;;;5087347;28;20027;-61
2021/09/07 02:50:27;;;;;;;3.70;1.30;;;;;;;;;;5087211;28;20035;-61
2021/09/07 02:52:54;;;;;;;3.10;1.20;;;;;;;;;;5088679;28;20097;-61
2021/09/07 02:55:21;;;;;;;4.97;1.20;;;;;;;;;;5092386;28;20459;-61
2021/09/07 02:57:47;;;;;;;3.30;1.40;;;;;;;;;;5092062;28;20059;-61
2021/09/07 03:00:14;;;;;;;6.23;1.50;;;;;;;;;;5092057;28;20035;-61
2021/09/07 03:02:41;;;;;;;3.67;0.97;;;;;;;;;;5092316;28;20479;-61
2021/09/07 03:05:08;;;;;;;6.63;2.03;;;;;;;;;;5090320;28;20030;-61
2021/09/07 03:07:35;;;;;;;3.70;1.03;;;;;;;;;;5087098;28;20024;-61
2021/09/07 03:10:02;;;;;;;6.60;1.20;;;;;;;;;;5086873;28;20035;-61
2021/09/07 03:12:28;;;;;;;2.40;1.00;;;;;;;;;;5087133;28;20024;-61
2021/09/07 03:14:55;;;;;;;3.33;1.10;;;;;;;;;;5088012;28;20034;-61
2021/09/07 03:17:22;;;;;;;2.70;0.80;;;;;;;;;;5092206;28;20070;-62
2021/09/07 03:19:49;;;;;;;2.37;0.87;;;;;;;;;;5092158;28;20016;-61
2021/09/07 03:22:15;;;;;;;3.43;0.80;;;;;;;;;;5092427;28;20048;-61
2021/09/07 03:24:42;;;;;;;5.87;1.30;;;;;;;;;;5097019;28;20671;-61
2021/09/07 03:27:09;;;;;;;5.43;1.27;;;;;;;;;;5094970;28;20034;-61
2021/09/07 03:29:36;;;;;;;3.47;1.07;;;;;;;;;;5090501;28;20016;-61
2021/09/07 03:32:04;;;;;;;3.30;1.30;;;;;;;;;;5090831;28;20012;-61
2021/09/07 03:34:31;;;;;;;3.20;1.10;;;;;;;;;;5090802;28;20679;-61
2021/09/07 03:36:57;;;;;;;9.90;2.03;;;;;;;;;;5090685;28;20024;-61
2021/09/07 03:39:24;;;;;;;19.30;2.70;;;;;;;;;;5095684;28;20387;-61
2021/09/07 03:41:51;;;;;;;6.33;1.20;;;;;;;;;;5095718;28;20584;-61
2021/09/07 03:44:18;;;;;;;5.33;1.33;;;;;;;;;;5111999;28;20031;-61
2021/09/07 03:46:44;;;;;;;5.90;1.47;;;;;;;;;;5115879;28;20038;-60
2021/09/07 03:49:11;;;;;;;4.90;1.00;;;;;;;;;;5115526;28;20023;-61
2021/09/07 03:51:38;;;;;;;35.33;3.30;;;;;;;;;;5110947;28;20023;-61
2021/09/07 03:54:05;;;;;;;20.13;1.97;;;;;;;;;;5093726;28;20039;-60
2021/09/07 03:56:31;;;;;;;5.40;1.40;;;;;;;;;;5090286;28;20028;-60
2021/09/07 03:58:58;;;;;;;18.00;2.07;;;;;;;;;;5090072;28;20034;-61
2021/09/07 04:01:25;;;;;;;5.70;1.33;;;;;;;;;;5094280;28;20020;-61
2021/09/07 04:03:52;;;;;;;2.87;0.87;;;;;;;;;;5095156;28;20040;-61
2021/09/07 04:06:19;;;;;;;5.37;1.20;;;;;;;;;;5095225;28;20048;-61
2021/09/07 04:08:45;;;;;;;1.97;1.10;;;;;;;;;;5094750;28;20020;-61
2021/09/07 04:11:12;;;;;;;2.60;1.10;;;;;;;;;;5095273;28;20016;-60
2021/09/07 04:13:39;;;;;;;2.17;0.83;;;;;;;;;;5102814;28;20072;-61
2021/09/07 04:16:06;;;;;;;2.40;1.13;;;;;;;;;;5110311;28;20020;-61
2021/09/07 04:18:33;;;;;;;5.73;1.10;;;;;;;;;;5110220;28;20036;-60
2021/09/07 04:20:59;;;;;;;0.90;0.70;;;;;;;;;;5110117;28;20051;-60
2021/09/07 04:23:26;;;;;;;1.13;0.73;;;;;;;;;;5113103;28;20031;-60
2021/09/07 04:25:53;;;;;;;3.03;0.87;;;;;;;;;;5115244;28;20076;-60
2021/09/07 04:28:20;;;;;;;1.50;0.80;;;;;;;;;;5115153;28;20051;-61
2021/09/07 04:30:47;;;;;;;2.03;1.03;;;;;;;;;;5115547;28;20024;-61
2021/09/07 04:33:13;;;;;;;1.93;0.70;;;;;;;;;;5115342;28;20106;-61
2021/09/07 04:35:40;;;;;;;2.27;0.80;;;;;;;;;;5111201;28;20023;-60
2021/09/07 04:38:07;;;;;;;2.23;1.00;;;;;;;;;;5109662;28;20550;-60
2021/09/07 04:40:34;;;;;;;1.03;0.60;;;;;;;;;;5109764;28;20390;-61
2021/09/07 04:43:00;;;;;;;1.77;1.00;;;;;;;;;;5103319;28;20520;-61
2021/09/07 04:45:27;;;;;;;1.33;0.63;;;;;;;;;;5091281;28;20021;-60
2021/09/07 04:47:54;;;;;;;1.43;0.60;;;;;;;;;;5094359;28;20016;-60
2021/09/07 04:50:21;;;;;;;0.83;0.50;;;;;;;;;;5094531;28;20020;-60
2021/09/07 04:52:47;;;;;;;0.63;0.43;;;;;;;;;;5094351;28;20020;-60
2021/09/07 04:55:14;;;;;;;1.13;0.60;;;;;;;;;;5094243;28;20028;-60
2021/09/07 04:57:45;;;;;;;1.47;0.30;;;;;;;;;;5092280;28;20090;-61
2021/09/07 05:00:12;;;;;;;2.13;0.40;;;;;;;;;;5089195;28;20035;-60
2021/09/07 05:02:38;;;;;;;0.53;0.20;;;;;;;;;;5088935;28;20386;-61
2021/09/07 05:05:09;;;;;;;2.33;0.30;;;;;;;;;;5088749;28;20036;-61
2021/09/07 05:07:36;;;;;;;0.30;0.10;;;;;;;;;;5089858;28;20048;-61
2021/09/07 05:10:03;;;;;;;0.73;0.17;;;;;;;;;;5094153;28;20375;-61
2021/09/07 05:12:30;;;;;;;0.10;0.10;;;;;;;;;;5093931;28;20024;-61
2021/09/07 05:14:56;;;;;;;1.27;0.23;;;;;;;;;;5093977;28;20046;-60
2021/09/07 05:17:23;;;;;;;2.13;0.30;;;;;;;;;;5093856;28;20035;-60
2021/09/07 05:19:50;;;;;;;1.33;0.40;;;;;;;;;;5109312;28;20031;-61
2021/09/07 05:22:17;;;;;;;1.93;0.70;;;;;;;;;;5108861;28;20050;-61
2021/09/07 05:24:43;;;;;;;1.10;0.47;;;;;;;;;;5109268;28;20530;-61
2021/09/07 05:27:10;;;;;;;1.03;0.20;;;;;;;;;;5092537;28;20036;-61
2021/09/07 05:29:37;;;;;;;0.47;0.20;;;;;;;;;;5087889;28;20043;-61
2021/09/07 05:32:04;;;;;;;2.43;0.30;;;;;;;;;;5092699;28;20073;-61
2021/09/07 05:34:31;;;;;;;3.30;0.13;;;;;;;;;;5106227;28;20445;-61
2021/09/07 05:36:58;;;;;;;5.13;0.60;;;;;;;;;;5114119;28;20031;-61
2021/09/07 05:39:25;;;;;;;0.17;0.10;;;;;;;;;;5113759;28;20489;-61
2021/09/07 05:41:52;;;;;;;2.77;0.33;;;;;;;;;;5113567;28;20606;-60
2021/09/07 05:44:19;;;;;;;1.53;0.20;;;;;;;;;;5108281;28;20546;-61
2021/09/07 05:46:46;;;;;;;1.70;0.20;;;;;;;;;;5108259;28;20031;-60
2021/09/07 05:49:12;;;;;;;1.70;0.20;;;;;;;;;;5108404;28;20077;-61
2021/09/07 05:51:41;;;;;;;2.13;0.73;;;;;;;;;;5108509;28;20028;-61
2021/09/07 05:54:08;;;;;;;3.13;0.27;;;;;;;;;;5112648;28;20037;-61
2021/09/07 05:56:35;;;;;;;0.73;0.00;;;;;;;;;;5113099;28;20042;-61
2021/09/07 05:59:01;;;;;;;0.27;0.10;;;;;;;;;;5113366;28;20122;-61
2021/09/07 06:01:28;;;;;;;0.57;0.13;;;;;;;;;;5113366;28;20078;-61
2021/09/07 06:03:55;;;;;;;0.67;0.17;;;;;;;;;;5103306;28;20076;-61
2021/09/07 06:06:23;;;;;;;0.83;0.20;;;;;;;;;;5108753;28;20032;-61
2021/09/07 06:08:50;;;;;;;2.07;0.17;;;;;;;;;;5107887;28;20031;-61
2021/09/07 06:11:16;;;;;;;1.20;0.20;;;;;;;;;;5108110;28;20370;-61
2021/09/07 06:13:44;;;;;;;0.17;0.03;;;;;;;;;;5107455;28;20028;-62
2021/09/07 06:16:10;;;;;;;0.30;0.10;;;;;;;;;;5111650;28;20080;-60
2021/09/07 06:18:37;;;;;;;0.20;0.13;;;;;;;;;;5113062;28;20031;-61
2021/09/07 06:21:04;;;;;;;0.20;0.10;;;;;;;;;;5113112;28;20046;-61
2021/09/07 06:23:31;;;;;;;0.53;0.10;;;;;;;;;;5113051;28;20020;-61
2021/09/07 06:25:59;;;;;;;2.13;0.10;;;;;;;;;;5113042;28;20023;-61
2021/09/07 06:28:26;;;;;;;0.20;0.10;;;;;;;;;;5108909;28;20163;-61
2021/09/07 06:30:53;;;;;;;0.67;0.10;;;;;;;;;;5107846;28;20366;-61
2021/09/07 06:33:20;;;;;;;1.60;0.50;;;;;;;;;;5095507;28;20039;-61
2021/09/07 06:35:46;;;;;;;2.60;0.20;;;;;;;;;;5087211;28;20103;-61
2021/09/07 06:38:13;;;;;;;1.43;0.30;;;;;;;;;;5089865;28;20044;-61
2021/09/07 06:40:41;;;;;;;3.20;0.30;;;;;;;;;;5092463;28;20099;-61
2021/09/07 06:43:08;;;;;;;2.33;0.30;;;;;;;;;;5092430;28;20402;-61
2021/09/07 06:45:34;;;;;;;2.43;0.20;;;;;;;;;;5092430;28;20020;-61
2021/09/07 06:48:01;;;;;;;1.87;0.30;;;;;;;;;;5092403;28;20510;-61
2021/09/07 06:50:28;;;;;;;0.80;0.30;;;;;;;;;;5089165;28;20324;-61
2021/09/07 06:52:55;;;;;;;1.07;0.53;;;;;;;;;;5087004;28;20054;-61
2021/09/07 06:55:22;;;;;;;1.13;0.40;;;;;;;;;;5086972;28;20504;-61
2021/09/07 06:57:48;;;;;;;2.80;0.37;;;;;;;;;;5088286;28;20023;-61
2021/09/07 07:00:17;;;;;;;4.87;0.47;;;;;;;;;;5093625;28;20024;-61
2021/09/07 07:02:44;;;;;;;1.60;0.40;;;;;;;;;;5102743;28;20474;-61
2021/09/07 07:05:11;;;;;;;1.20;0.50;;;;;;;;;;5116926;28;20027;-61
2021/09/07 07:07:37;;;;;;;0.53;0.20;;;;;;;;;;5116485;28;20167;-61
2021/09/07 07:10:04;;;;;;;2.20;0.50;;;;;;;;;;5116652;28;20023;-61
2021/09/07 07:12:31;;;;;;;0.93;0.20;;;;;;;;;;5114401;28;20473;-61
2021/09/07 07:14:58;;;;;;;3.60;0.40;;;;;;;;;;5111321;28;20059;-61
2021/09/07 07:17:25;;;;;;;0.60;0.10;;;;;;;;;;5111629;28;20015;-61
2021/09/07 07:19:52;;;;;;;0.93;0.20;;;;;;;;;;5111203;28;20047;-61
2021/09/07 07:22:20;;;;;;;0.70;0.40;;;;;;;;;;5112534;28;20027;-61
2021/09/07 07:24:47;;;;;;;0.20;0.10;;;;;;;;;;5115839;28;20031;-61
2021/09/07 07:27:14;;;;;;;1.67;0.30;;;;;;;;;;5116440;28;20073;-61
2021/09/07 07:29:41;;;;;;;0.67;0.20;;;;;;;;;;5116270;28;20016;-62
2021/09/07 07:32:07;;;;;;;1.47;0.13;;;;;;;;;;5114872;28;20051;-61
2021/09/07 07:34:34;;;;;;;4.40;0.33;;;;;;;;;;5094487;28;20444;-61
2021/09/07 07:37:04;;;;;;;0.83;0.27;;;;;;;;;;5090399;28;20043;-61
2021/09/07 07:39:31;;;;;;;0.60;0.30;;;;;;;;;;5090213;28;20036;-62
2021/09/07 07:41:58;;;;;;;1.60;0.40;;;;;;;;;;5090447;28;20028;-61
2021/09/07 07:44:25;;;;;;;3.37;0.30;;;;;;;;;;5090981;28;20434;-61
2021/09/07 07:46:52;;;;;;;2.53;0.40;;;;;;;;;;5095582;28;20016;-61
2021/09/07 07:49:19;;;;;;;4.73;0.30;;;;;;;;;;5095727;28;20020;-60
2021/09/07 07:51:46;;;;;;;0.87;0.27;;;;;;;;;;5095612;28;20088;-61
2021/09/07 07:54:13;;;;;;;2.73;0.30;;;;;;;;;;5095598;28;20077;-61
2021/09/07 07:56:40;;;;;;;0.97;0.40;;;;;;;;;;5094080;28;20028;-61
2021/09/07 07:59:07;;;;;;;0.50;0.20;;;;;;;;;;5089959;28;20036;-61
2021/09/07 08:01:34;;;;;;;3.70;0.20;;;;;;;;;;5090131;28;20449;-61
2021/09/07 08:04:01;;;;;;;0.50;0.20;;;;;;;;;;5106800;28;20023;-61
2021/09/07 08:06:28;;;;;;;3.17;0.40;;;;;;;;;;5110242;28;20051;-61
2021/09/07 08:08:54;;;;;;;0.77;0.20;;;;;;;;;;5115716;28;20051;-61
2021/09/07 08:11:21;;;;;;;2.17;0.10;;;;;;;;;;5115593;28;20102;-61
2021/09/07 08:13:50;;;;;;;0.70;0.27;;;;;;;;;;5115293;28;20024;-61
2021/09/07 08:16:17;;;;;;;3.20;0.30;;;;;;;;;;5115658;28;20027;-60
2021/09/07 08:18:44;;;;;;;0.53;0.20;;;;;;;;;;5115261;28;20381;-60
2021/09/07 08:21:11;;;;;;;2.47;0.30;;;;;;;;;;5110026;28;20458;-61
2021/09/07 08:23:37;;;;;;;2.07;0.50;;;;;;;;;;5110118;28;20031;-61
2021/09/07 08:26:04;;;;;;;0.40;0.17;;;;;;;;;;5109297;28;20028;-61
2021/09/07 08:28:31;;;;;;;0.77;0.13;;;;;;;;;;5108939;28;20028;-61
2021/09/07 08:30:58;;;;;;;0.30;0.30;;;;;;;;;;5112256;28;20035;-61
2021/09/07 08:33:25;;;;;;;0.20;0.10;;;;;;;;;;5114099;28;20055;-60
2021/09/07 08:35:51;;;;;;;0.60;0.20;;;;;;;;;;5115021;28;20044;-60
2021/09/07 08:38:18;;;;;;;0.47;0.17;;;;;;;;;;5114844;28;20032;-61
2021/09/07 08:40:46;;;;;;;0.50;0.10;;;;;;;;;;5115096;28;20024;-60
2021/09/07 08:43:13;;;;;;;0.87;0.10;;;;;;;;;;5109936;28;20032;-60
2021/09/07 08:45:41;;;;;;;1.27;0.10;;;;;;;;;;5109768;28;20019;-60
2021/09/07 08:48:08;;;;;;;0.07;0.07;;;;;;;;;;5109149;28;20032;-60
2021/09/07 08:50:34;;;;;;;0.17;0.10;;;;;;;;;;5109745;28;20073;-60
2021/09/07 08:53:01;;;;;;;0.40;0.13;;;;;;;;;;5113742;28;20505;-60
2021/09/07 08:55:29;;;;;;;0.10;0.10;;;;;;;;;;5114669;28;20031;-61
2021/09/07 08:57:56;;;;;;;0.10;0.10;;;;;;;;;;5114363;28;20043;-60
2021/09/07 09:00:29;;;;;;;0.67;0.20;;;;;;;;;;5107228;28;20127;-60
2021/09/07 09:02:56;;;;;;;0.73;0.20;;;;;;;;;;5093797;28;20099;-60
2021/09/07 09:05:27;;;;;;;0.67;0.30;;;;;;;;;;5089679;28;20020;-60
2021/09/07 09:07:54;;;;;;;2.30;0.20;;;;;;;;;;5088771;28;20081;-60
2021/09/07 09:10:22;;;;;;;4.40;0.30;;;;;;;;;;5088737;28;20066;-60
2021/09/07 09:12:49;;;;;;;0.53;0.40;;;;;;;;;;5088673;28;20020;-60
2021/09/07 09:15:20;;;;;;;1.13;0.20;;;;;;;;;;5092475;28;20452;-60
2021/09/07 09:17:50;;;;;;;2.23;0.30;;;;;;;;;;5093270;28;20035;-60
2021/09/07 09:20:18;;;;;;;0.70;0.30;;;;;;;;;;5093079;28;20046;-60
2021/09/07 09:22:47;;;;;;;0.13;0.10;;;;;;;;;;5093752;28;20061;-60
2021/09/07 09:25:20;;;;;;;0.40;0.13;;;;;;;;;;5093775;28;20475;-60
2021/09/07 09:27:48;;;;;;;3.13;0.20;;;;;;;;;;5089066;28;20038;-61
2021/09/07 09:30:15;;;;;;;4.80;0.43;;;;;;;;;;5093890;28;20060;-60
2021/09/07 09:32:48;;;;;;;3.90;0.30;;;;;;;;;;5104734;28;20057;-60
2021/09/07 09:35:15;;;;;;;1.33;0.30;;;;;;;;;;5088448;28;20474;-60
2021/09/07 09:37:54;;;;;;;2.00;0.27;;;;;;;;;;5092181;28;20046;-60
2021/09/07 09:40:21;;;;;;;2.83;0.40;;;;;;;;;;5093502;28;20032;-61
2021/09/07 09:42:48;;;;;;;3.90;0.50;;;;;;;;;;5093127;28;20054;-60
2021/09/07 09:45:16;;;;;;;2.77;0.53;;;;;;;;;;5093212;28;20442;-60
2021/09/07 09:47:43;;;;;;;0.70;0.23;;;;;;;;;;5093302;28;20038;-60
2021/09/07 09:50:11;;;;;;;0.77;0.10;;;;;;;;;;5088551;28;20103;-61
2021/09/07 09:52:39;;;;;;;1.50;0.40;;;;;;;;;;5101060;28;20024;-60
2021/09/07 09:55:08;;;;;;;1.50;0.10;;;;;;;;;;5108550;28;20031;-60
2021/09/07 09:57:35;;;;;;;5.40;0.30;;;;;;;;;;5108439;28;20024;-60
2021/09/07 10:00:04;;;;;;;1.30;0.13;;;;;;;;;;5112027;28;20055;-60
2021/09/07 10:02:31;;;;;;;4.13;0.30;;;;;;;;;;5113423;28;20034;-60
2021/09/07 10:04:59;;;;;;;4.23;0.20;;;;;;;;;;5113208;28;20051;-60
2021/09/07 10:07:26;;;;;;;2.97;0.20;;;;;;;;;;5113444;28;20019;-60
2021/09/07 10:09:54;;;;;;;0.87;0.10;;;;;;;;;;5113388;28;20035;-60
2021/09/07 10:12:24;;;;;;;2.03;0.10;;;;;;;;;;5109012;28;20469;-60
2021/09/07 10:15:03;;;;;;;0.10;0.10;;;;;;;;;;5107940;28;20047;-60
2021/09/07 10:17:42;;;;;;;0.60;0.20;;;;;;;;;;5108075;28;20381;-60
2021/09/07 10:20:18;;;;;;;1.23;0.20;;;;;;;;;;5107908;28;20040;-60
2021/09/07 10:25:49;;;;;;;3.00;0.73;;;;;;;;;;5092755;28;20317;-60
2021/09/07 10:28:30;;;;;;;0.00;0.00;;;;;;;;;;5084821;28;20065;-60
2021/09/07 10:31:04;;;;;;;0.33;0.10;;;;;;;;;;5092207;28;20020;-60
2021/09/07 10:33:32;;;;;;;0.70;0.30;;;;;;;;;;5090253;28;20027;-60
2021/09/07 10:36:14;;;;;;;0.60;0.30;;;;;;;;;;5087467;28;20024;-60
2021/09/07 10:38:48;;;;;;;3.30;0.23;;;;;;;;;;5087240;28;20112;-60
2021/09/07 10:41:42;;;;;;;2.07;0.53;;;;;;;;;;5087243;28;20042;-60
2021/09/07 10:44:10;;;;;;;2.03;0.30;;;;;;;;;;5089778;28;20089;-60
2021/09/07 10:46:50;;;;;;;1.00;0.40;;;;;;;;;;5092376;28;20600;-61
2021/09/07 10:49:29;;;;;;;5.37;0.93;;;;;;;;;;5092335;28;20027;-60
2021/09/07 10:52:12;;;;;;;2.23;0.60;;;;;;;;;;5099552;28;20043;-60
2021/09/07 10:54:51;;;;;;;3.90;0.60;;;;;;;;;;5112679;28;20065;-60
2021/09/07 10:57:33;;;;;;;5.87;0.77;;;;;;;;;;5108168;28;20020;-60
2021/09/07 11:00:03;;;;;;;2.50;0.50;;;;;;;;;;5107442;28;20529;-61
2021/09/07 11:02:37;;;;;;;3.27;0.50;;;;;;;;;;5096263;28;20036;-60
2021/09/07 11:05:07;;;;;;;3.63;0.50;;;;;;;;;;5086982;28;20020;-60
2021/09/07 11:07:37;;;;;;;2.00;0.53;;;;;;;;;;5091843;28;20073;-60
2021/09/07 11:10:04;;;;;;;4.73;0.60;;;;;;;;;;5092158;28;20035;-60
2021/09/07 11:12:32;;;;;;;1.00;0.30;;;;;;;;;;5095473;28;20031;-60
2021/09/07 11:15:06;;;;;;;0.63;0.33;;;;;;;;;;5112567;28;20598;-60
2021/09/07 11:17:33;;;;;;;4.00;0.40;;;;;;;;;;5100680;28;20024;-60
2021/09/07 11:20:00;;;;;;;1.83;0.50;;;;;;;;;;5086742;28;20062;-60
2021/09/07 11:22:29;;;;;;;1.77;0.40;;;;;;;;;;5086873;28;20285;-60
2021/09/07 11:25:12;;;;;;;3.20;0.40;;;;;;;;;;5086920;28;20035;-60
2021/09/07 11:27:48;;;;;;;1.13;0.40;;;;;;;;;;5086982;28;20023;-60
2021/09/07 11:30:28;;;;;;;2.40;0.50;;;;;;;;;;5091410;28;20028;-60
2021/09/07 11:32:56;;;;;;;1.17;0.40;;;;;;;;;;5092271;28;20366;-60
2021/09/07 11:35:23;;;;;;;4.00;0.50;;;;;;;;;;5091989;28;20534;-60
2021/09/07 11:37:50;;;;;;;2.83;0.40;;;;;;;;;;5091790;28;20090;-60
2021/09/07 11:40:17;;;;;;;2.03;0.70;;;;;;;;;;5090744;28;20024;-60
2021/09/07 11:42:48;;;;;;;2.67;1.07;;;;;;;;;;5086264;28;20032;-60
2021/09/07 11:45:28;;;;;;;2.23;1.00;;;;;;;;;;5090172;28;20059;-60
2021/09/07 11:47:56;;;;;;;3.37;1.27;;;;;;;;;;5105548;28;20062;-60
2021/09/07 11:50:30;;;;;;;1.27;0.67;;;;;;;;;;5111729;28;20391;-60
2021/09/07 11:52:58;;;;;;;1.40;0.60;;;;;;;;;;5115511;28;20451;-60
2021/09/07 11:55:48;;;;;;;2.47;0.37;;;;;;;;;;5116052;28;20031;-60
2021/09/07 11:58:31;;;;;;;0.43;0.30;;;;;;;;;;5115709;28;20449;-60
2021/09/07 12:00:59;;;;;;;0.40;0.20;;;;;;;;;;5116174;28;20036;-60
2021/09/07 12:03:33;;;;;;;1.47;0.20;;;;;;;;;;5112899;28;20023;-60
2021/09/07 12:06:00;;;;;;;0.45;0.20;;;;;;;;;;5110464;28;20028;-60
2021/09/07 12:08:36;;;;;;;2.77;0.50;;;;;;;;;;5110505;28;20019;-60
2021/09/07 12:11:03;;;;;;;1.23;0.33;;;;;;;;;;5110414;28;20024;-60
2021/09/07 12:13:31;;;;;;;1.50;0.63;;;;;;;;;;5112511;28;20027;-60
2021/09/07 12:15:58;;;;;;;0.23;0.20;;;;;;;;;;5115446;28;20051;-60
2021/09/07 12:18:32;;;;;;;2.23;0.40;;;;;;;;;;5103151;28;20364;-60
2021/09/07 12:21:13;;;;;;;6.35;0.70;;;;;;;;;;5094970;28;20037;-60
2021/09/07 12:23:42;;;;;;;1.43;0.33;;;;;;;;;;5094985;28;20111;-60
2021/09/07 12:26:10;;;;;;;2.80;0.50;;;;;;;;;;5091311;28;20020;-60
2021/09/07 12:28:37;;;;;;;0.73;0.33;;;;;;;;;;5089560;28;20519;-60
2021/09/07 12:31:14;;;;;;;5.10;0.37;;;;;;;;;;5089590;28;20024;-60
2021/09/07 12:33:52;;;;;;;1.53;0.10;;;;;;;;;;5101679;28;20442;-60
2021/09/07 12:36:20;;;;;;;0.60;0.30;;;;;;;;;;5112974;28;20034;-60
2021/09/07 12:38:47;;;;;;;7.93;1.17;;;;;;;;;;5114664;28;20088;-60
2021/09/07 12:41:16;;;;;;;4.40;0.53;;;;;;;;;;5115081;28;20024;-60
2021/09/07 12:43:46;;;;;;;1.87;0.50;;;;;;;;;;5114753;28;20056;-60
2021/09/07 12:46:14;;;;;;;3.43;0.50;;;;;;;;;;5100698;28;20028;-60
2021/09/07 12:48:42;;;;;;;2.33;0.60;;;;;;;;;;5098414;28;20036;-61
2021/09/07 12:51:09;;;;;;;3.97;1.17;;;;;;;;;;5092868;28;20145;-60
2021/09/07 12:53:40;;;;;;;2.10;0.70;;;;;;;;;;5088870;28;20387;-60
2021/09/07 12:56:08;;;;;;;3.40;1.13;;;;;;;;;;5088036;28;20032;-60
2021/09/07 12:58:36;;;;;;;3.70;1.27;;;;;;;;;;5092436;28;20471;-60
2021/09/07 13:01:05;;;;;;;2.50;1.20;;;;;;;;;;5094205;28;20032;-60
2021/09/07 13:03:31;;;;;;;2.00;0.90;;;;;;;;;;5094107;28;20035;-60
2021/09/07 13:05:58;;;;;;;1.57;0.93;;;;;;;;;;5094167;28;20020;-60
2021/09/07 13:08:25;;;;;;;2.33;0.80;;;;;;;;;;5093687;28;20027;-60
2021/09/07 13:10:53;;;;;;;1.10;0.70;;;;;;;;;;5090507;28;20031;-60
2021/09/07 13:13:20;;;;;;;2.93;1.10;;;;;;;;;;5088671;28;20028;-60
2021/09/07 13:15:47;;;;;;;2.70;1.10;;;;;;;;;;5088911;28;20028;-61
2021/09/07 13:18:13;;;;;;;3.97;1.23;;;;;;;;;;5088862;28;20045;-60
2021/09/07 13:20:40;;;;;;;2.87;0.80;;;;;;;;;;5091377;28;20028;-61
2021/09/07 13:23:07;;;;;;;1.30;0.80;;;;;;;;;;5093992;28;20023;-60
2021/09/07 13:25:34;;;;;;;1.83;0.90;;;;;;;;;;5105477;28;20549;-61
2021/09/07 13:28:00;;;;;;;1.30;0.70;;;;;;;;;;5093802;28;20501;-60
2021/09/07 13:30:30;;;;;;;3.47;1.10;;;;;;;;;;5093532;28;20021;-60
2021/09/07 13:32:57;;;;;;;2.93;0.83;;;;;;;;;;5090533;28;20049;-60
2021/09/07 13:35:24;;;;;;;3.17;1.10;;;;;;;;;;5088432;28;20042;-60
2021/09/07 13:37:51;;;;;;;7.10;1.30;;;;;;;;;;5088343;28;20437;-60
2021/09/07 13:40:18;;;;;;;6.27;1.97;;;;;;;;;;5087937;28;20032;-61
2021/09/07 13:42:44;;;;;;;4.87;1.63;;;;;;;;;;5090723;28;20031;-60
2021/09/07 13:45:11;;;;;;;6.47;1.30;;;;;;;;;;5093307;28;20024;-60
2021/09/07 13:47:38;;;;;;;6.60;1.33;;;;;;;;;;5093345;28;20471;-60
2021/09/07 13:50:05;;;;;;;2.17;1.20;;;;;;;;;;5093296;28;20030;-60
2021/09/07 13:52:32;;;;;;;2.57;1.37;;;;;;;;;;5093331;28;20032;-60
2021/09/07 13:54:59;;;;;;;8.33;3.33;;;;;;;;;;5090697;28;20085;-60
2021/09/07 13:57:25;;;;;;;5.10;3.43;;;;;;;;;;5087554;28;20099;-60
2021/09/07 13:59:52;;;;;;;9.07;5.20;;;;;;;;;;5087803;28;20047;-60
2021/09/07 14:02:19;;;;;;;6.87;4.93;;;;;;;;;;5087136;28;20024;-62
2021/09/07 14:04:46;;;;;;;7.77;5.77;;;;;;;;;;5090177;28;20027;-61
2021/09/07 14:07:13;;;;;;;11.07;5.80;;;;;;;;;;5092837;28;20020;-61
2021/09/07 14:09:40;;;;;;;12.97;6.27;;;;;;;;;;5092925;28;20062;-62
2021/09/07 14:12:07;;;;;;;7.20;4.90;;;;;;;;;;5092998;28;20025;-62
2021/09/07 14:14:33;;;;;;;11.87;4.63;;;;;;;;;;5092471;28;20028;-62
2021/09/07 14:17:00;;;;;;;13.27;4.50;;;;;;;;;;5098221;28;20094;-62
2021/09/07 14:19:28;;;;;;;11.80;3.47;;;;;;;;;;5106053;28;20363;-63
2021/09/07 14:21:55;;;;;;;5.57;2.80;;;;;;;;;;5107843;28;20084;-62
2021/09/07 14:24:22;;;;;;;4.20;2.30;;;;;;;;;;5108017;28;20015;-61
2021/09/07 14:26:49;;;;;;;5.87;1.73;;;;;;;;;;5108744;28;20098;-62
2021/09/07 14:29:15;;;;;;;3.30;1.40;;;;;;;;;;5113054;28;20029;-61
2021/09/07 14:31:42;;;;;;;6.73;1.53;;;;;;;;;;5107412;28;20086;-62
2021/09/07 14:34:09;;;;;;;2.97;1.33;;;;;;;;;;5092694;28;20028;-61
2021/09/07 14:36:36;;;;;;;2.00;1.00;;;;;;;;;;5092527;28;20036;-62
2021/09/07 14:39:03;;;;;;;2.87;0.83;;;;;;;;;;5091451;28;20041;-62
2021/09/07 14:41:30;;;;;;;3.83;0.83;;;;;;;;;;5087399;28;20020;-63
2021/09/07 14:43:57;;;;;;;2.57;1.07;;;;;;;;;;5087448;28;20087;-61
2021/09/07 14:46:24;;;;;;;2.33;1.13;;;;;;;;;;5087405;28;20456;-62
2021/09/07 14:48:51;;;;;;;2.60;1.20;;;;;;;;;;5087419;28;20613;-62
2021/09/07 14:51:17;;;;;;;6.23;1.40;;;;;;;;;;5092305;28;20032;-62